sensor_id;sensor_type;location;lat;lon;timestamp;pressure;altitude;pressure_sealevel;temperature;humidity
15260;BME280;34462;51.368;12.364;2023-02-19T00:01:53;19143.22;;;-141.84;82.11
15260;BME280;34462;51.368;12.364;2023-02-19T00:04:21;19133.06;;;-141.84;82.58
15260;BME280;34462;51.368;12.364;2023-02-19T00:06:50;19122.91;;;-141.84;83.12
15260;BME280;34462;51.368;12.364;2023-02-19T00:09:19;19098.50;;;-141.84;83.25
15260;BME280;34462;51.368;12.364;2023-02-19T00:11:48;19114.78;;;-141.84;83.07
15260;BME280;34462;51.368;12.364;2023-02-19T00:14:20;19118.84;;;-141.84;82.67
15260;BME280;34462;51.368;12.364;2023-02-19T00:16:49;19122.91;;;-141.84;83.47
15260;BME280;34462;51.368;12.364;2023-02-19T00:19:19;19082.25;;;-141.84;84.35
15260;BME280;34462;51.368;12.364;2023-02-19T00:21:49;19059.91;;;-141.84;85.02
15260;BME280;34462;51.368;12.364;2023-02-19T00:24:18;19070.06;;;-141.84;84.80
15260;BME280;34462;51.368;12.364;2023-02-19T00:26:47;19076.16;;;-141.84;84.97
15260;BME280;34462;51.368;12.364;2023-02-19T00:29:19;19088.34;;;-141.84;84.53
15260;BME280;34462;51.368;12.364;2023-02-19T00:31:48;19051.78;;;-141.84;84.68
15260;BME280;34462;51.368;12.364;2023-02-19T00:34:16;19088.34;;;-141.84;84.03
15260;BME280;34462;51.368;12.364;2023-02-19T00:36:45;19110.72;;;-141.84;83.77
15260;BME280;34462;51.368;12.364;2023-02-19T00:39:15;19104.59;;;-141.84;84.00
15260;BME280;34462;51.368;12.364;2023-02-19T00:41:44;19078.19;;;-141.84;84.69
15260;BME280;34462;51.368;12.364;2023-02-19T00:44:13;19086.31;;;-141.84;85.43
15260;BME280;34462;51.368;12.364;2023-02-19T00:46:45;19084.28;;;-141.84;86.37
15260;BME280;34462;51.368;12.364;2023-02-19T00:49:18;19066.00;;;-141.84;86.60
15260;BME280;34462;51.368;12.364;2023-02-19T00:51:47;19049.75;;;-141.84;87.12
15260;BME280;34462;51.368;12.364;2023-02-19T00:54:16;19059.91;;;-141.84;88.08
15260;BME280;34462;51.368;12.364;2023-02-19T00:56:44;19059.91;;;-141.84;88.16
15260;BME280;34462;51.368;12.364;2023-02-19T00:59:13;19017.25;;;-141.84;88.30
15260;BME280;34462;51.368;12.364;2023-02-19T01:01:43;19049.75;;;-141.84;89.14
15260;BME280;34462;51.368;12.364;2023-02-19T01:04:12;19033.50;;;-141.84;89.49
15260;BME280;34462;51.368;12.364;2023-02-19T01:06:42;19025.38;;;-141.84;89.70
15260;BME280;34462;51.368;12.364;2023-02-19T01:09:10;19029.44;;;-141.84;90.39
15260;BME280;34462;51.368;12.364;2023-02-19T01:11:39;19013.16;;;-141.84;90.50
15260;BME280;34462;51.368;12.364;2023-02-19T01:14:08;19021.31;;;-141.84;91.13
15260;BME280;34462;51.368;12.364;2023-02-19T01:16:37;19013.16;;;-141.84;91.31
15260;BME280;34462;51.368;12.364;2023-02-19T01:19:06;18972.53;;;-141.84;91.30
15260;BME280;34462;51.368;12.364;2023-02-19T01:21:34;18990.81;;;-141.84;91.89
15260;BME280;34462;51.368;12.364;2023-02-19T01:24:03;18972.53;;;-141.84;91.85
15260;BME280;34462;51.368;12.364;2023-02-19T01:26:32;18972.53;;;-141.84;91.89
15260;BME280;34462;51.368;12.364;2023-02-19T01:29:01;18982.69;;;-141.84;92.29
15260;BME280;34462;51.368;12.364;2023-02-19T01:31:29;18938.00;;;-141.84;92.53
15260;BME280;34462;51.368;12.364;2023-02-19T01:33:59;18935.97;;;-141.84;93.08
15260;BME280;34462;51.368;12.364;2023-02-19T01:36:32;18946.13;;;-141.84;93.30
15260;BME280;34462;51.368;12.364;2023-02-19T01:39:02;18938.00;;;-141.84;93.30
15260;BME280;34462;51.368;12.364;2023-02-19T01:41:35;18909.53;;;-141.84;93.82
15260;BME280;34462;51.368;12.364;2023-02-19T01:47:16;18935.97;;;-141.84;94.18
15260;BME280;34462;51.368;12.364;2023-02-19T01:49:49;18915.63;;;-141.84;93.99
15260;BME280;34462;51.368;12.364;2023-02-19T01:52:27;18935.97;;;-141.84;94.00
15260;BME280;34462;51.368;12.364;2023-02-19T01:54:57;18911.56;;;-141.84;94.10
15260;BME280;34462;51.368;12.364;2023-02-19T01:57:32;18923.78;;;-141.84;94.47
15260;BME280;34462;51.368;12.364;2023-02-19T02:00:07;18893.28;;;-141.84;94.71
15260;BME280;34462;51.368;12.364;2023-02-19T02:02:37;18883.13;;;-141.84;95.38
15260;BME280;34462;51.368;12.364;2023-02-19T02:05:14;18931.91;;;-141.84;95.58
15260;BME280;34462;51.368;12.364;2023-02-19T02:07:46;18903.44;;;-141.84;95.57
15260;BME280;34462;51.368;12.364;2023-02-19T02:10:32;18872.97;;;-141.84;96.03
15260;BME280;34462;51.368;12.364;2023-02-19T02:13:00;18840.47;;;-141.84;96.19
15260;BME280;34462;51.368;12.364;2023-02-19T02:15:38;18868.91;;;-141.84;96.37
15260;BME280;34462;51.368;12.364;2023-02-19T02:18:25;18832.34;;;-141.84;96.51
15260;BME280;34462;51.368;12.364;2023-02-19T02:27:50;18805.91;;;-141.84;97.33
15260;BME280;34462;51.368;12.364;2023-02-19T02:30:34;18809.97;;;-141.84;97.51
15260;BME280;34462;51.368;12.364;2023-02-19T02:33:20;18812.00;;;-141.84;97.86
15260;BME280;34462;51.368;12.364;2023-02-19T02:35:56;18822.19;;;-141.84;97.96
15260;BME280;34462;51.368;12.364;2023-02-19T02:38:29;18747.00;;;-141.84;98.18
15260;BME280;34462;51.368;12.364;2023-02-19T02:40:58;18724.66;;;-141.84;98.38
15260;BME280;34462;51.368;12.364;2023-02-19T02:43:27;18742.94;;;-141.84;98.39
15260;BME280;34462;51.368;12.364;2023-02-19T02:45:57;18767.31;;;-141.84;98.37
15260;BME280;34462;51.368;12.364;2023-02-19T02:48:33;18742.94;;;-141.84;98.57
15260;BME280;34462;51.368;12.364;2023-02-19T02:51:11;18747.00;;;-141.84;98.55
15260;BME280;34462;51.368;12.364;2023-02-19T02:53:47;18716.53;;;-141.84;98.46
15260;BME280;34462;51.368;12.364;2023-02-19T02:56:34;18755.13;;;-141.84;98.21
15260;BME280;34462;51.368;12.364;2023-02-19T02:59:07;18704.31;;;-141.84;97.98
15260;BME280;34462;51.368;12.364;2023-02-19T03:01:42;18698.22;;;-141.84;98.29
15260;BME280;34462;51.368;12.364;2023-02-19T03:04:36;18700.25;;;-141.84;98.15
15260;BME280;34462;51.368;12.364;2023-02-19T03:07:32;18724.66;;;-141.84;97.73
15260;BME280;34462;51.368;12.364;2023-02-19T03:10:04;18751.06;;;-141.84;97.72
15260;BME280;34462;51.368;12.364;2023-02-19T03:12:36;18726.69;;;-141.84;97.66
15260;BME280;34462;51.368;12.364;2023-02-19T03:15:30;18732.78;;;-141.84;97.78
15260;BME280;34462;51.368;12.364;2023-02-19T03:18:22;18728.72;;;-141.84;97.77
15260;BME280;34462;51.368;12.364;2023-02-19T03:21:08;18732.78;;;-141.84;97.89
15260;BME280;34462;51.368;12.364;2023-02-19T03:23:37;18724.66;;;-141.84;97.90
15260;BME280;34462;51.368;12.364;2023-02-19T03:26:24;18724.66;;;-141.84;97.78
15260;BME280;34462;51.368;12.364;2023-02-19T03:28:54;18702.28;;;-141.84;97.66
15260;BME280;34462;51.368;12.364;2023-02-19T03:31:42;18714.50;;;-141.84;97.37
15260;BME280;34462;51.368;12.364;2023-02-19T03:34:20;18720.59;;;-141.84;97.23
15260;BME280;34462;51.368;12.364;2023-02-19T03:36:59;18740.91;;;-141.84;97.03
15260;BME280;34462;51.368;12.364;2023-02-19T03:39:29;18714.50;;;-141.84;96.87
15260;BME280;34462;51.368;12.364;2023-02-19T03:42:03;18755.13;;;-141.84;96.84
15260;BME280;34462;51.368;12.364;2023-02-19T03:44:41;18740.91;;;-141.84;96.84
15260;BME280;34462;51.368;12.364;2023-02-19T03:47:18;18714.50;;;-141.84;97.02
15260;BME280;34462;51.368;12.364;2023-02-19T03:49:55;18730.75;;;-141.84;96.52
15260;BME280;34462;51.368;12.364;2023-02-19T03:52:40;18749.03;;;-141.84;96.29
15260;BME280;34462;51.368;12.364;2023-02-19T03:55:16;18730.75;;;-141.84;96.38
15260;BME280;34462;51.368;12.364;2023-02-19T03:57:48;18728.72;;;-141.84;96.43
15260;BME280;34462;51.368;12.364;2023-02-19T04:00:25;18728.72;;;-141.84;95.83
15260;BME280;34462;51.368;12.364;2023-02-19T04:03:01;18734.81;;;-141.84;96.03
15260;BME280;34462;51.368;12.364;2023-02-19T04:05:41;18755.13;;;-141.84;96.10
15260;BME280;34462;51.368;12.364;2023-02-19T04:08:17;18749.03;;;-141.84;95.85
15260;BME280;34462;51.368;12.364;2023-02-19T04:10:48;18751.06;;;-141.84;95.63
15260;BME280;34462;51.368;12.364;2023-02-19T04:13:22;18740.91;;;-141.84;95.91
15260;BME280;34462;51.368;12.364;2023-02-19T04:15:59;18751.06;;;-141.84;96.16
15260;BME280;34462;51.368;12.364;2023-02-19T04:18:32;18696.19;;;-141.84;96.78
15260;BME280;34462;51.368;12.364;2023-02-19T04:21:05;18696.19;;;-141.84;96.98
15260;BME280;34462;51.368;12.364;2023-02-19T04:23:39;18716.53;;;-141.84;97.28
15260;BME280;34462;51.368;12.364;2023-02-19T04:26:11;18736.84;;;-141.84;97.26
15260;BME280;34462;51.368;12.364;2023-02-19T04:28:41;18724.66;;;-141.84;97.62
15260;BME280;34462;51.368;12.364;2023-02-19T04:31:10;18749.03;;;-141.84;97.31
15260;BME280;34462;51.368;12.364;2023-02-19T04:33:39;18740.91;;;-141.84;96.81
15260;BME280;34462;51.368;12.364;2023-02-19T04:36:10;18734.81;;;-141.84;96.71
15260;BME280;34462;51.368;12.364;2023-02-19T04:38:38;18728.72;;;-141.84;96.69
15260;BME280;34462;51.368;12.364;2023-02-19T04:41:07;18744.97;;;-141.84;96.82
15260;BME280;34462;51.368;12.364;2023-02-19T04:43:36;18722.63;;;-141.84;96.74
15260;BME280;34462;51.368;12.364;2023-02-19T04:46:04;18734.81;;;-141.84;96.70
15260;BME280;34462;51.368;12.364;2023-02-19T04:48:33;18728.72;;;-141.84;96.15
15260;BME280;34462;51.368;12.364;2023-02-19T04:51:05;18742.94;;;-141.84;96.09
15260;BME280;34462;51.368;12.364;2023-02-19T04:53:35;18744.97;;;-141.84;95.91
15260;BME280;34462;51.368;12.364;2023-02-19T04:56:09;18761.22;;;-141.84;95.40
15260;BME280;34462;51.368;12.364;2023-02-19T04:58:38;18728.72;;;-141.84;95.22
15260;BME280;34462;51.368;12.364;2023-02-19T05:01:07;18730.75;;;-141.84;95.46
15260;BME280;34462;51.368;12.364;2023-02-19T05:03:37;18722.63;;;-141.84;95.29
15260;BME280;34462;51.368;12.364;2023-02-19T05:06:09;18720.59;;;-141.84;94.51
15260;BME280;34462;51.368;12.364;2023-02-19T05:08:39;18708.41;;;-141.84;94.99
15260;BME280;34462;51.368;12.364;2023-02-19T05:11:10;18730.75;;;-141.84;95.36
15260;BME280;34462;51.368;12.364;2023-02-19T05:13:39;18724.66;;;-141.84;95.35
15260;BME280;34462;51.368;12.364;2023-02-19T05:16:10;18716.53;;;-141.84;95.51
15260;BME280;34462;51.368;12.364;2023-02-19T05:18:44;18692.13;;;-141.84;95.92
15260;BME280;34462;51.368;12.364;2023-02-19T05:21:13;18740.91;;;-141.84;96.53
15260;BME280;34462;51.368;12.364;2023-02-19T05:23:43;18696.19;;;-141.84;96.82
15260;BME280;34462;51.368;12.364;2023-02-19T05:26:14;18718.56;;;-141.84;97.01
15260;BME280;34462;51.368;12.364;2023-02-19T05:28:44;18720.59;;;-141.84;97.34
15260;BME280;34462;51.368;12.364;2023-02-19T05:31:13;18722.63;;;-141.84;96.80
15260;BME280;34462;51.368;12.364;2023-02-19T05:33:41;18714.50;;;-141.84;96.68
15260;BME280;34462;51.368;12.364;2023-02-19T05:36:13;18716.53;;;-141.84;96.78
15260;BME280;34462;51.368;12.364;2023-02-19T05:38:42;18696.19;;;-141.84;96.85
15260;BME280;34462;51.368;12.364;2023-02-19T05:41:13;18700.25;;;-141.84;97.12
15260;BME280;34462;51.368;12.364;2023-02-19T05:43:45;18679.94;;;-141.84;97.28
15260;BME280;34462;51.368;12.364;2023-02-19T05:46:16;18716.53;;;-141.84;97.24
15260;BME280;34462;51.368;12.364;2023-02-19T05:48:45;18730.75;;;-141.84;96.95
15260;BME280;34462;51.368;12.364;2023-02-19T05:51:18;18696.19;;;-141.84;96.99
15260;BME280;34462;51.368;12.364;2023-02-19T05:53:49;18667.75;;;-141.84;97.05
15260;BME280;34462;51.368;12.364;2023-02-19T05:56:28;18690.09;;;-141.84;97.03
15260;BME280;34462;51.368;12.364;2023-02-19T05:58:58;18688.06;;;-141.84;97.66
15260;BME280;34462;51.368;12.364;2023-02-19T06:01:28;18631.19;;;-141.84;98.03
15260;BME280;34462;51.368;12.364;2023-02-19T06:03:57;18637.28;;;-141.84;98.31
15260;BME280;34462;51.368;12.364;2023-02-19T06:06:26;18649.47;;;-141.84;98.59
15260;BME280;34462;51.368;12.364;2023-02-19T06:08:55;18643.38;;;-141.84;98.71
15260;BME280;34462;51.368;12.364;2023-02-19T06:11:24;18661.66;;;-141.84;98.69
15260;BME280;34462;51.368;12.364;2023-02-19T06:13:52;18629.16;;;-141.84;98.66
15260;BME280;34462;51.368;12.364;2023-02-19T06:16:20;18643.38;;;-141.84;98.64
15260;BME280;34462;51.368;12.364;2023-02-19T06:18:49;18643.38;;;-141.84;98.45
15260;BME280;34462;51.368;12.364;2023-02-19T06:21:18;18631.19;;;-141.84;98.53
15260;BME280;34462;51.368;12.364;2023-02-19T06:23:47;18631.19;;;-141.84;98.55
15260;BME280;34462;51.368;12.364;2023-02-19T06:26:19;18635.25;;;-141.84;98.50
15260;BME280;34462;51.368;12.364;2023-02-19T06:28:50;18612.91;;;-141.84;98.53
15260;BME280;34462;51.368;12.364;2023-02-19T06:31:20;18600.72;;;-141.84;98.27
15260;BME280;34462;51.368;12.364;2023-02-19T06:33:49;18655.56;;;-141.84;97.93
15260;BME280;34462;51.368;12.364;2023-02-19T06:36:19;18655.56;;;-141.84;97.55
15260;BME280;34462;51.368;12.364;2023-02-19T06:38:48;18637.28;;;-141.84;97.57
15260;BME280;34462;51.368;12.364;2023-02-19T06:41:18;18655.56;;;-141.84;97.42
15260;BME280;34462;51.368;12.364;2023-02-19T06:43:46;18669.78;;;-141.84;95.60
15260;BME280;34462;51.368;12.364;2023-02-19T06:46:14;18690.09;;;-141.84;90.44
15260;BME280;34462;51.368;12.364;2023-02-19T06:48:44;18684.00;;;-141.84;87.70
15260;BME280;34462;51.368;12.364;2023-02-19T06:51:15;18686.03;;;-141.84;87.66
15260;BME280;34462;51.368;12.364;2023-02-19T06:53:45;18653.53;;;-141.84;87.46
15260;BME280;34462;51.368;12.364;2023-02-19T06:56:26;18665.72;;;-141.84;88.10
15260;BME280;34462;51.368;12.364;2023-02-19T06:58:58;18675.88;;;-141.84;86.24
15260;BME280;34462;51.368;12.364;2023-02-19T07:01:28;18649.47;;;-141.84;85.40
15260;BME280;34462;51.368;12.364;2023-02-19T07:03:57;18677.91;;;-141.84;86.54
15260;BME280;34462;51.368;12.364;2023-02-19T07:06:26;18692.13;;;-141.84;86.51
15260;BME280;34462;51.368;12.364;2023-02-19T07:08:57;18688.06;;;-141.84;86.26
15260;BME280;34462;51.368;12.364;2023-02-19T07:11:30;18631.19;;;-141.84;86.12
15260;BME280;34462;51.368;12.364;2023-02-19T07:14:01;18679.94;;;-141.84;85.14
15260;BME280;34462;51.368;12.364;2023-02-19T07:16:30;18647.44;;;-141.84;85.50
15260;BME280;34462;51.368;12.364;2023-02-19T07:19:00;18657.59;;;-141.84;86.16
15260;BME280;34462;51.368;12.364;2023-02-19T07:21:29;18659.63;;;-141.84;85.04
15260;BME280;34462;51.368;12.364;2023-02-19T07:23:57;18665.72;;;-141.84;85.08
15260;BME280;34462;51.368;12.364;2023-02-19T07:26:26;18681.97;;;-141.84;84.49
15260;BME280;34462;51.368;12.364;2023-02-19T07:28:54;18643.38;;;-141.84;84.97
15260;BME280;34462;51.368;12.364;2023-02-19T07:31:23;18637.28;;;-141.84;84.90
15260;BME280;34462;51.368;12.364;2023-02-19T07:33:52;18651.50;;;-141.84;85.07
15260;BME280;34462;51.368;12.364;2023-02-19T07:36:22;18639.31;;;-141.84;84.39
15260;BME280;34462;51.368;12.364;2023-02-19T07:38:54;18641.34;;;-141.84;84.25
15260;BME280;34462;51.368;12.364;2023-02-19T07:41:25;18659.63;;;-141.84;84.61
15260;BME280;34462;51.368;12.364;2023-02-19T07:43:54;18655.56;;;-141.84;84.44
15260;BME280;34462;51.368;12.364;2023-02-19T07:46:23;18600.72;;;-141.84;84.66
15260;BME280;34462;51.368;12.364;2023-02-19T07:48:51;18635.25;;;-141.84;84.44
15260;BME280;34462;51.368;12.364;2023-02-19T07:51:20;18621.03;;;-141.84;84.67
15260;BME280;34462;51.368;12.364;2023-02-19T07:53:49;18639.31;;;-141.84;84.67
15260;BME280;34462;51.368;12.364;2023-02-19T07:56:18;18616.97;;;-141.84;84.15
15260;BME280;34462;51.368;12.364;2023-02-19T07:58:48;18649.47;;;-141.84;83.67
15260;BME280;34462;51.368;12.364;2023-02-19T08:01:19;18655.56;;;-141.84;83.66
15260;BME280;34462;51.368;12.364;2023-02-19T08:04:11;18637.28;;;-141.84;83.41
15260;BME280;34462;51.368;12.364;2023-02-19T08:06:40;18604.78;;;-141.84;84.18
15260;BME280;34462;51.368;12.364;2023-02-19T08:09:09;18661.66;;;-141.84;83.84
15260;BME280;34462;51.368;12.364;2023-02-19T08:11:38;18659.63;;;-141.84;83.94
15260;BME280;34462;51.368;12.364;2023-02-19T08:14:26;18604.78;;;-141.84;84.03
15260;BME280;34462;51.368;12.364;2023-02-19T08:16:54;18637.28;;;-141.84;83.20
15260;BME280;34462;51.368;12.364;2023-02-19T08:19:23;18655.56;;;-141.84;83.47
15260;BME280;34462;51.368;12.364;2023-02-19T08:21:51;18635.25;;;-141.84;83.35
15260;BME280;34462;51.368;12.364;2023-02-19T08:24:20;18641.34;;;-141.84;84.47
15260;BME280;34462;51.368;12.364;2023-02-19T08:26:49;18651.50;;;-141.84;83.76
15260;BME280;34462;51.368;12.364;2023-02-19T08:29:17;18637.28;;;-141.84;84.25
15260;BME280;34462;51.368;12.364;2023-02-19T08:31:46;18639.31;;;-141.84;82.95
15260;BME280;34462;51.368;12.364;2023-02-19T08:34:15;18673.84;;;-141.84;82.44
15260;BME280;34462;51.368;12.364;2023-02-19T08:36:43;18641.34;;;-141.84;82.02
15260;BME280;34462;51.368;12.364;2023-02-19T08:39:11;18641.34;;;-141.84;82.49
15260;BME280;34462;51.368;12.364;2023-02-19T08:41:39;18629.16;;;-141.84;82.52
15260;BME280;34462;51.368;12.364;2023-02-19T08:44:07;18661.66;;;-141.84;82.14
15260;BME280;34462;51.368;12.364;2023-02-19T08:46:35;18653.53;;;-141.84;81.54
15260;BME280;34462;51.368;12.364;2023-02-19T08:49:05;18671.81;;;-141.84;80.69
15260;BME280;34462;51.368;12.364;2023-02-19T08:51:33;18647.44;;;-141.84;80.64
15260;BME280;34462;51.368;12.364;2023-02-19T08:54:03;18667.75;;;-141.84;80.83
15260;BME280;34462;51.368;12.364;2023-02-19T08:56:31;18653.53;;;-141.84;80.04
15260;BME280;34462;51.368;12.364;2023-02-19T08:58:59;18663.69;;;-141.84;79.98
15260;BME280;34462;51.368;12.364;2023-02-19T09:01:27;18681.97;;;-141.84;80.50
15260;BME280;34462;51.368;12.364;2023-02-19T09:03:55;18696.19;;;-141.84;79.70
15260;BME280;34462;51.368;12.364;2023-02-19T09:06:25;18704.31;;;-141.84;79.11
15260;BME280;34462;51.368;12.364;2023-02-19T09:08:53;18716.53;;;-141.84;78.29
15260;BME280;34462;51.368;12.364;2023-02-19T09:11:22;18698.22;;;-141.84;78.81
15260;BME280;34462;51.368;12.364;2023-02-19T09:13:50;18718.56;;;-141.84;78.60
15260;BME280;34462;51.368;12.364;2023-02-19T09:16:18;18757.16;;;-141.84;76.26
15260;BME280;34462;51.368;12.364;2023-02-19T09:18:46;18769.34;;;-141.84;75.77
15260;BME280;34462;51.368;12.364;2023-02-19T09:21:14;18791.69;;;-141.84;76.12
15260;BME280;34462;51.368;12.364;2023-02-19T09:23:44;18797.78;;;-141.84;75.12
15260;BME280;34462;51.368;12.364;2023-02-19T09:26:12;18809.97;;;-141.84;73.78
15260;BME280;34462;51.368;12.364;2023-02-19T09:28:40;18866.88;;;-141.84;74.00
15260;BME280;34462;51.368;12.364;2023-02-19T09:31:11;18864.84;;;-141.84;73.92
15260;BME280;34462;51.368;12.364;2023-02-19T09:33:44;18818.09;;;-141.84;74.89
15260;BME280;34462;51.368;12.364;2023-02-19T09:36:15;18814.03;;;-141.84;75.26
15260;BME280;34462;51.368;12.364;2023-02-19T09:38:45;18814.03;;;-141.84;74.96
15260;BME280;34462;51.368;12.364;2023-02-19T09:41:21;18791.69;;;-141.84;74.52
15260;BME280;34462;51.368;12.364;2023-02-19T09:43:51;18826.25;;;-141.84;73.59
15260;BME280;34462;51.368;12.364;2023-02-19T09:46:29;18895.31;;;-141.84;73.87
15260;BME280;34462;51.368;12.364;2023-02-19T09:49:04;18872.97;;;-141.84;73.38
15260;BME280;34462;51.368;12.364;2023-02-19T09:51:36;18883.13;;;-141.84;73.15
15260;BME280;34462;51.368;12.364;2023-02-19T09:54:17;18927.84;;;-141.84;70.68
15260;BME280;34462;51.368;12.364;2023-02-19T09:56:47;18966.44;;;-141.84;69.18
15260;BME280;34462;51.368;12.364;2023-02-19T09:59:20;18966.44;;;-141.84;68.83
15260;BME280;34462;51.368;12.364;2023-02-19T10:01:57;18972.53;;;-141.84;68.51
15260;BME280;34462;51.368;12.364;2023-02-19T10:04:26;19003.00;;;-141.84;70.14
15260;BME280;34462;51.368;12.364;2023-02-19T10:06:57;19009.09;;;-141.84;68.38
15260;BME280;34462;51.368;12.364;2023-02-19T10:09:30;18998.94;;;-141.84;68.54
15260;BME280;34462;51.368;12.364;2023-02-19T10:11:59;19063.97;;;-141.84;67.48
15260;BME280;34462;51.368;12.364;2023-02-19T10:14:35;19049.75;;;-141.84;67.09
15260;BME280;34462;51.368;12.364;2023-02-19T10:17:16;19047.72;;;-141.84;67.35
15260;BME280;34462;51.368;12.364;2023-02-19T10:19:47;19041.63;;;-141.84;68.29
15260;BME280;34462;51.368;12.364;2023-02-19T10:22:17;19015.19;;;-141.84;68.99
15260;BME280;34462;51.368;12.364;2023-02-19T10:24:52;19094.44;;;-141.84;65.11
15260;BME280;34462;51.368;12.364;2023-02-19T10:27:21;19126.97;;;-141.84;65.53
15260;BME280;34462;51.368;12.364;2023-02-19T10:29:53;19088.34;;;-141.84;66.20
15260;BME280;34462;51.368;12.364;2023-02-19T10:32:24;19139.16;;;-141.84;66.69
15260;BME280;34462;51.368;12.364;2023-02-19T10:35:09;19080.22;;;-141.84;66.22
15260;BME280;34462;51.368;12.364;2023-02-19T10:37:43;19047.72;;;-141.84;65.86
15260;BME280;34462;51.368;12.364;2023-02-19T10:40:17;19076.16;;;-141.84;66.30
15260;BME280;34462;51.368;12.364;2023-02-19T10:42:48;19078.19;;;-141.84;65.23
15260;BME280;34462;51.368;12.364;2023-02-19T10:45:22;19084.28;;;-141.84;65.53
15260;BME280;34462;51.368;12.364;2023-02-19T10:47:52;19047.72;;;-141.84;65.44
15260;BME280;34462;51.368;12.364;2023-02-19T10:50:26;19096.47;;;-141.84;66.51
15260;BME280;34462;51.368;12.364;2023-02-19T10:52:59;19106.66;;;-141.84;66.11
15260;BME280;34462;51.368;12.364;2023-02-19T10:55:32;19068.03;;;-141.84;65.23
15260;BME280;34462;51.368;12.364;2023-02-19T10:58:22;19126.97;;;-141.84;64.13
15260;BME280;34462;51.368;12.364;2023-02-19T11:01:18;19151.34;;;-141.84;64.48
15260;BME280;34462;51.368;12.364;2023-02-19T11:03:49;19124.94;;;-141.84;64.97
15260;BME280;34462;51.368;12.364;2023-02-19T11:06:24;19192.00;;;-141.84;60.70
15260;BME280;34462;51.368;12.364;2023-02-19T11:08:56;19198.09;;;-141.84;61.83
15260;BME280;34462;51.368;12.364;2023-02-19T11:11:32;19163.53;;;-141.84;62.13
15260;BME280;34462;51.368;12.364;2023-02-19T11:14:04;19143.22;;;-141.84;62.96
15260;BME280;34462;51.368;12.364;2023-02-19T11:16:43;19167.59;;;-141.84;64.04
15260;BME280;34462;51.368;12.364;2023-02-19T11:19:28;19177.75;;;-141.84;62.56
15260;BME280;34462;51.368;12.364;2023-02-19T11:22:00;19198.09;;;-141.84;62.10
15260;BME280;34462;51.368;12.364;2023-02-19T11:24:33;19149.31;;;-141.84;62.85
15260;BME280;34462;51.368;12.364;2023-02-19T11:27:16;19208.25;;;-141.84;61.36
15260;BME280;34462;51.368;12.364;2023-02-19T11:29:45;19194.03;;;-141.84;62.34
15260;BME280;34462;51.368;12.364;2023-02-19T11:32:24;19208.25;;;-141.84;61.37
15260;BME280;34462;51.368;12.364;2023-02-19T11:35:18;19244.81;;;-141.84;60.51
15260;BME280;34462;51.368;12.364;2023-02-19T11:37:57;19259.03;;;-141.84;60.84
15260;BME280;34462;51.368;12.364;2023-02-19T11:40:39;19248.88;;;-141.84;59.76
15260;BME280;34462;51.368;12.364;2023-02-19T11:43:30;19281.41;;;-141.84;59.05
15260;BME280;34462;51.368;12.364;2023-02-19T11:46:11;19313.91;;;-141.84;59.18
15260;BME280;34462;51.368;12.364;2023-02-19T11:49:01;19330.16;;;-141.84;58.94
15260;BME280;34462;51.368;12.364;2023-02-19T11:52:15;19299.69;;;-141.84;59.55
15260;BME280;34462;51.368;12.364;2023-02-19T11:54:53;19293.59;;;-141.84;58.88
15260;BME280;34462;51.368;12.364;2023-02-19T11:57:41;19261.06;;;-141.84;59.91
15260;BME280;34462;51.368;12.364;2023-02-19T12:00:28;19248.88;;;-141.84;60.45
15260;BME280;34462;51.368;12.364;2023-02-19T12:03:46;19261.06;;;-141.84;59.40
15260;BME280;34462;51.368;12.364;2023-02-19T12:06:25;19250.91;;;-141.84;59.74
15260;BME280;34462;51.368;12.364;2023-02-19T12:09:23;19230.59;;;-141.84;59.97
15260;BME280;34462;51.368;12.364;2023-02-19T12:12:19;19196.06;;;-141.84;61.62
15260;BME280;34462;51.368;12.364;2023-02-19T12:15:25;19192.00;;;-141.84;61.50
15260;BME280;34462;51.368;12.364;2023-02-19T12:18:34;19212.31;;;-141.84;60.49
15260;BME280;34462;51.368;12.364;2023-02-19T12:21:30;19175.72;;;-141.84;61.98
15260;BME280;34462;51.368;12.364;2023-02-19T12:27:26;19240.75;;;-141.84;59.82
15260;BME280;34462;51.368;12.364;2023-02-19T12:30:21;19236.69;;;-141.84;60.06
15260;BME280;34462;51.368;12.364;2023-02-19T12:33:11;19232.63;;;-141.84;59.26
15260;BME280;34462;51.368;12.364;2023-02-19T12:36:02;19246.84;;;-141.84;59.63
15260;BME280;34462;51.368;12.364;2023-02-19T12:38:43;19261.06;;;-141.84;59.79
15260;BME280;34462;51.368;12.364;2023-02-19T12:41:36;19293.59;;;-141.84;57.95
15260;BME280;34462;51.368;12.364;2023-02-19T12:44:14;19289.53;;;-141.84;58.47
15260;BME280;34462;51.368;12.364;2023-02-19T12:46:50;19311.88;;;-141.84;56.84
15260;BME280;34462;51.368;12.364;2023-02-19T12:49:27;19338.28;;;-141.84;57.53
15260;BME280;34462;51.368;12.364;2023-02-19T12:52:01;19352.53;;;-141.84;55.77
15260;BME280;34462;51.368;12.364;2023-02-19T12:54:36;19368.78;;;-141.84;55.83
15260;BME280;34462;51.368;12.364;2023-02-19T12:57:12;19421.63;;;-141.84;54.43
15260;BME280;34462;51.368;12.364;2023-02-19T12:59:49;19488.69;;;-141.84;52.50
15260;BME280;34462;51.368;12.364;2023-02-19T13:02:25;19537.44;;;-141.84;53.77
15260;BME280;34462;51.368;12.364;2023-02-19T13:05:01;19537.44;;;-141.84;52.37
15260;BME280;34462;51.368;12.364;2023-02-19T13:07:38;19484.59;;;-141.84;52.44
15260;BME280;34462;51.368;12.364;2023-02-19T13:10:27;19441.94;;;-141.84;53.68
15260;BME280;34462;51.368;12.364;2023-02-19T13:13:04;19399.25;;;-141.84;54.40
15260;BME280;34462;51.368;12.364;2023-02-19T13:15:39;19448.03;;;-141.84;54.64
15260;BME280;34462;51.368;12.364;2023-02-19T13:18:15;19395.19;;;-141.84;55.08